createdAt,value
2018-03-31T00:00:55.547Z,67.37
2018-03-31T00:01:58.733Z,67.51
2018-03-31T00:03:01.835Z,67.49
2018-03-31T00:04:05.278Z,67.62
2018-03-31T00:05:08.362Z,67.70
2018-03-31T00:06:11.476Z,67.63
2018-03-31T00:07:14.884Z,67.60
2018-03-31T00:08:18.162Z,67.77
2018-03-31T00:09:21.230Z,67.90
2018-03-31T00:10:25.370Z,67.44
2018-03-31T00:11:28.435Z,67.44
2018-03-31T00:12:31.538Z,67.44
2018-03-31T00:13:34.819Z,67.48
2018-03-31T00:14:37.867Z,67.50
2018-03-31T00:15:40.994Z,67.49
2018-03-31T00:16:44.580Z,67.67
2018-03-31T00:17:47.887Z,67.65
2018-03-31T00:18:50.966Z,67.57
2018-03-31T00:19:54.230Z,67.86
2018-03-31T00:20:57.420Z,67.77
2018-03-31T00:22:00.613Z,67.46
2018-03-31T00:23:03.681Z,67.12
2018-03-31T00:24:06.913Z,67.44
2018-03-31T00:25:10.009Z,67.62
2018-03-31T00:26:13.045Z,67.46
2018-03-31T00:27:16.178Z,67.21
2018-03-31T00:28:19.474Z,67.13
2018-03-31T00:29:22.438Z,67.18
2018-03-31T00:30:26.140Z,67.28
2018-03-31T00:31:29.154Z,67.50
2018-03-31T00:32:32.222Z,67.91
2018-03-31T00:33:35.592Z,67.52
2018-03-31T00:34:38.655Z,67.54
2018-03-31T00:35:41.715Z,67.39
2018-03-31T00:36:44.928Z,66.95
2018-03-31T00:37:48.048Z,67.26
2018-03-31T00:38:51.450Z,67.21
2018-03-31T00:39:54.530Z,67.62
2018-03-31T00:40:57.906Z,68.55
2018-03-31T00:42:01.186Z,68.52
2018-03-31T00:43:04.309Z,69.35
2018-03-31T00:44:07.486Z,69.84
2018-03-31T00:45:13.190Z,70.51
2018-03-31T00:46:16.308Z,71.04
2018-03-31T00:47:19.758Z,71.89
2018-03-31T00:48:22.970Z,71.39
2018-03-31T00:49:26.075Z,72.42
2018-03-31T00:50:29.146Z,72.71
2018-03-31T00:51:32.140Z,73.32
2018-03-31T00:52:35.266Z,73.34
2018-03-31T00:53:38.799Z,74.38
2018-03-31T00:54:42.078Z,73.62
2018-03-31T00:55:45.387Z,73.77
2018-03-31T00:56:48.430Z,74.55
2018-03-31T00:57:51.634Z,74.04
2018-03-31T00:58:54.798Z,74.22
2018-03-31T00:59:58.537Z,73.71
2018-03-31T01:01:02.101Z,73.40
2018-03-31T01:02:05.495Z,73.53
2018-03-31T01:03:08.374Z,73.72
2018-03-31T01:04:11.518Z,73.59
2018-03-31T01:05:14.669Z,74.12
2018-03-31T01:06:36.781Z,73.83
2018-03-31T01:09:21.831Z,74.96
2018-03-31T01:10:30.854Z,75.39
2018-03-31T01:11:58.532Z,76.05
2018-03-31T01:13:23.312Z,76.25
2018-03-31T01:16:02.609Z,75.45
2018-03-31T01:17:07.071Z,74.60
2018-03-31T01:18:10.782Z,75.02
2018-03-31T01:19:13.919Z,74.93
2018-03-31T01:20:17.094Z,75.67
2018-03-31T01:21:20.334Z,76.32
2018-03-31T01:22:23.387Z,76.63
2018-03-31T01:23:26.419Z,77.47
2018-03-31T01:24:29.602Z,77.50
2018-03-31T01:25:32.683Z,78.13
2018-03-31T01:26:36.122Z,78.15
2018-03-31T01:27:39.126Z,78.18
2018-03-31T01:28:42.592Z,78.40
2018-03-31T01:29:45.667Z,77.73
2018-03-31T01:30:49.182Z,77.78
2018-03-31T01:31:52.890Z,77.87
2018-03-31T01:32:55.788Z,78.35
2018-03-31T01:33:58.981Z,78.18
2018-03-31T01:35:02.218Z,77.49
2018-03-31T01:36:05.572Z,77.15
2018-03-31T01:37:08.669Z,77.15
2018-03-31T01:38:11.609Z,77.01
2018-03-31T01:39:14.650Z,76.92
2018-03-31T01:40:17.908Z,77.02
2018-03-31T01:41:21.288Z,76.66
2018-03-31T01:42:25.644Z,75.00
2018-03-31T01:43:29.153Z,75.01
2018-03-31T01:44:33.314Z,74.88
2018-03-31T01:45:36.513Z,74.45
2018-03-31T01:46:39.576Z,74.90
2018-03-31T01:47:43.063Z,74.92
2018-03-31T01:48:46.119Z,74.32
2018-03-31T01:49:49.934Z,74.04
2018-03-31T01:50:53.262Z,74.52
2018-03-31T01:51:57.069Z,75.05
2018-03-31T01:52:59.923Z,74.58
2018-03-31T01:54:03.225Z,74.67
2018-03-31T01:55:06.323Z,75.09
2018-03-31T01:56:09.692Z,74.50
2018-03-31T01:57:12.761Z,74.62
2018-03-31T01:58:15.585Z,74.89
2018-03-31T01:59:19.064Z,75.03
2018-03-31T02:00:23.028Z,73.97
2018-03-31T02:01:27.404Z,72.65
2018-03-31T02:02:30.580Z,73.29
2018-03-31T02:03:34.390Z,72.98
2018-03-31T02:04:37.725Z,72.96
2018-03-31T02:05:40.876Z,73.10
2018-03-31T02:06:44.418Z,73.49
2018-03-31T02:07:47.430Z,73.96
2018-03-31T02:08:50.213Z,73.40
2018-03-31T02:09:53.370Z,73.35
2018-03-31T02:10:56.490Z,73.41
2018-03-31T02:11:59.742Z,73.48
2018-03-31T02:13:02.921Z,73.25
2018-03-31T02:14:06.099Z,72.79
2018-03-31T02:15:09.405Z,72.64
2018-03-31T02:16:12.644Z,72.66
2018-03-31T02:17:15.619Z,72.76
2018-03-31T02:18:18.753Z,72.97
2018-03-31T02:19:22.193Z,73.04
2018-03-31T02:20:25.513Z,73.12
2018-03-31T02:21:29.281Z,72.94
2018-03-31T02:22:32.288Z,72.55
2018-03-31T02:23:35.219Z,72.88
2018-03-31T02:24:38.084Z,72.49
2018-03-31T02:25:41.198Z,72.72
2018-03-31T02:26:44.176Z,73.22
2018-03-31T02:27:46.929Z,73.43
2018-03-31T02:28:49.751Z,73.91
2018-03-31T02:29:53.122Z,73.23
2018-03-31T02:30:56.565Z,73.31
2018-03-31T02:31:59.993Z,73.72
2018-03-31T02:33:03.240Z,73.67
2018-03-31T02:34:06.072Z,73.91
2018-03-31T02:35:09.101Z,73.81
2018-03-31T02:36:11.924Z,73.36
2018-03-31T02:37:14.867Z,73.88
2018-03-31T02:38:18.113Z,73.70
2018-03-31T02:39:20.877Z,73.13
2018-03-31T02:40:23.931Z,73.34
2018-03-31T02:41:27.129Z,73.78
2018-03-31T02:42:29.866Z,73.61
2018-03-31T02:43:32.825Z,73.85
2018-03-31T02:44:36.287Z,73.86
2018-03-31T02:45:39.236Z,72.97
2018-03-31T02:46:42.057Z,72.98
2018-03-31T02:47:44.890Z,72.92
2018-03-31T02:48:47.812Z,73.00
2018-03-31T02:49:50.859Z,73.62
2018-03-31T02:50:54.138Z,72.89
2018-03-31T02:51:57.271Z,72.92
2018-03-31T02:53:00.392Z,72.84
2018-03-31T02:54:03.441Z,73.15
2018-03-31T02:55:06.339Z,73.75
2018-03-31T02:56:09.419Z,74.14
2018-03-31T02:57:12.406Z,74.74
2018-03-31T02:58:15.233Z,74.89
2018-03-31T02:59:18.143Z,75.07
2018-03-31T03:00:21.775Z,76.02
2018-03-31T03:01:24.913Z,75.35
2018-03-31T03:02:28.140Z,75.25
2018-03-31T03:03:31.172Z,75.30
2018-03-31T03:04:34.327Z,75.34
2018-03-31T03:05:38.387Z,75.35
2018-03-31T03:06:41.505Z,76.08
2018-03-31T03:07:44.541Z,75.88
2018-03-31T03:08:47.260Z,76.28
2018-03-31T03:09:50.372Z,76.15
2018-03-31T03:10:53.646Z,76.09
2018-03-31T03:11:56.420Z,76.47
2018-03-31T03:12:59.207Z,76.26
2018-03-31T03:14:02.273Z,76.52
2018-03-31T03:15:05.865Z,76.32
2018-03-31T03:16:09.455Z,76.62
2018-03-31T03:17:12.260Z,77.03
2018-03-31T03:18:15.221Z,76.89
2018-03-31T03:19:17.990Z,77.06
2018-03-31T03:20:20.903Z,76.70
2018-03-31T03:21:24.055Z,77.28
2018-03-31T03:22:27.091Z,77.10
2018-03-31T03:23:29.916Z,77.96
2018-03-31T03:24:33.218Z,77.27
2018-03-31T03:25:35.956Z,77.51
2018-03-31T03:26:38.741Z,78.19
2018-03-31T03:27:41.519Z,77.38
2018-03-31T03:28:44.602Z,76.46
2018-03-31T03:29:47.409Z,76.33
2018-03-31T03:30:50.927Z,76.88
2018-03-31T03:31:53.829Z,76.94
2018-03-31T03:32:56.715Z,77.17
2018-03-31T03:34:00.056Z,76.93
2018-03-31T03:35:03.014Z,77.62
2018-03-31T03:36:05.951Z,77.62
2018-03-31T03:37:09.189Z,77.90
2018-03-31T03:38:12.314Z,77.94
2018-03-31T03:39:15.352Z,77.28
2018-03-31T03:40:18.126Z,77.18
2018-03-31T03:41:21.218Z,77.62
2018-03-31T03:42:23.939Z,77.32
2018-03-31T03:43:26.804Z,77.36
2018-03-31T03:44:29.769Z,77.66
2018-03-31T03:45:33.767Z,77.82
2018-03-31T03:46:37.054Z,77.49
2018-03-31T03:47:39.970Z,77.95
2018-03-31T03:48:42.897Z,78.19
2018-03-31T03:49:45.770Z,78.06
2018-03-31T03:50:48.606Z,77.88
2018-03-31T03:51:51.430Z,77.97
2018-03-31T03:52:54.332Z,77.45
2018-03-31T03:53:57.604Z,77.57
2018-03-31T03:55:00.370Z,78.07
2018-03-31T03:56:03.147Z,78.22
2018-03-31T03:57:05.969Z,77.79
2018-03-31T03:58:08.732Z,78.11
2018-03-31T03:59:11.426Z,77.83
2018-03-31T04:00:16.043Z,78.26
2018-03-31T04:01:19.465Z,78.42
2018-03-31T04:02:22.898Z,78.64
2018-03-31T04:03:25.978Z,78.65
2018-03-31T04:04:29.215Z,78.58
2018-03-31T04:05:32.055Z,78.35
2018-03-31T04:06:35.192Z,78.30
2018-03-31T04:07:39.004Z,78.55
2018-03-31T04:08:41.792Z,78.32
2018-03-31T04:09:44.672Z,78.54
2018-03-31T04:10:47.680Z,78.85
2018-03-31T04:11:50.712Z,79.31
2018-03-31T04:12:53.508Z,78.70
2018-03-31T04:13:56.489Z,79.21
2018-03-31T04:14:59.760Z,79.22
2018-03-31T04:16:02.856Z,79.52
2018-03-31T04:17:05.944Z,79.10
2018-03-31T04:18:08.999Z,79.15
2018-03-31T04:19:11.848Z,79.84
2018-03-31T04:20:14.816Z,79.30
2018-03-31T04:21:17.870Z,78.80
2018-03-31T04:22:21.343Z,79.08
2018-03-31T04:23:24.759Z,78.95
2018-03-31T04:24:28.081Z,78.50
2018-03-31T04:25:31.163Z,78.91
2018-03-31T04:26:33.876Z,79.23
2018-03-31T04:27:36.958Z,79.06
2018-03-31T04:28:40.507Z,79.24
2018-03-31T04:29:44.690Z,79.93
2018-03-31T04:30:48.071Z,78.87
2018-03-31T04:31:51.430Z,80.36
2018-03-31T04:32:54.658Z,79.49
2018-03-31T04:33:58.447Z,79.18
2018-03-31T04:35:02.010Z,79.22
2018-03-31T04:36:05.349Z,79.55
2018-03-31T04:37:08.314Z,79.54
2018-03-31T04:38:11.191Z,79.48
2018-03-31T04:39:14.129Z,79.36
2018-03-31T04:40:16.868Z,79.28
2018-03-31T04:41:19.664Z,79.52
2018-03-31T04:42:22.580Z,79.78
2018-03-31T04:43:25.686Z,79.94
2018-03-31T04:44:28.860Z,79.94
2018-03-31T04:45:32.070Z,79.97
2018-03-31T04:46:34.867Z,80.25
2018-03-31T04:47:37.701Z,80.83
2018-03-31T04:48:40.451Z,81.48
2018-03-31T04:49:44.209Z,80.75
2018-03-31T04:50:47.196Z,80.31
2018-03-31T04:51:50.100Z,80.43
2018-03-31T04:52:53.064Z,81.08
2018-03-31T04:53:56.107Z,80.32
2018-03-31T04:54:59.089Z,80.27
2018-03-31T04:56:02.119Z,80.38
2018-03-31T04:57:04.964Z,79.92
2018-03-31T04:58:08.095Z,79.73
2018-03-31T04:59:11.237Z,79.89
2018-03-31T05:00:15.928Z,79.49
2018-03-31T05:01:18.978Z,79.48
2018-03-31T05:02:22.165Z,79.17
2018-03-31T05:03:25.113Z,79.43
2018-03-31T05:04:28.308Z,80.48
2018-03-31T05:05:31.296Z,80.14
2018-03-31T05:06:34.349Z,79.44
2018-03-31T05:07:37.197Z,79.35
2018-03-31T05:08:39.987Z,79.57
2018-03-31T05:09:42.898Z,79.85
2018-03-31T05:10:46.234Z,80.02
2018-03-31T05:11:49.091Z,79.53
2018-03-31T05:12:52.367Z,79.83
2018-03-31T05:13:55.218Z,79.29
2018-03-31T05:14:58.404Z,79.12
2018-03-31T05:16:01.599Z,79.56
2018-03-31T05:17:04.340Z,79.82
2018-03-31T05:18:07.456Z,78.86
2018-03-31T05:19:10.470Z,78.62
2018-03-31T05:20:13.406Z,79.09
2018-03-31T05:21:17.125Z,79.24
2018-03-31T05:22:20.112Z,79.87
2018-03-31T05:23:23.280Z,79.53
2018-03-31T05:24:26.411Z,79.15
2018-03-31T05:25:29.964Z,79.32
2018-03-31T05:26:33.418Z,79.25
2018-03-31T05:27:36.583Z,79.17
2018-03-31T05:28:39.439Z,79.16
2018-03-31T05:29:42.478Z,79.09
2018-03-31T05:30:45.924Z,79.43
2018-03-31T05:31:49.186Z,79.48
2018-03-31T05:32:52.051Z,79.31
2018-03-31T05:33:55.071Z,79.07
2018-03-31T05:34:57.874Z,79.70
2018-03-31T05:36:00.710Z,79.21
2018-03-31T05:37:03.594Z,79.81
2018-03-31T05:38:06.296Z,79.08
2018-03-31T05:39:09.524Z,78.78
2018-03-31T05:40:13.059Z,78.87
2018-03-31T05:41:15.814Z,79.43
2018-03-31T05:42:18.581Z,78.53
2018-03-31T05:43:21.554Z,78.69
2018-03-31T05:44:24.761Z,78.93
2018-03-31T05:45:29.288Z,79.06
2018-03-31T05:46:32.722Z,79.00
2018-03-31T05:47:35.778Z,79.01
2018-03-31T05:48:39.859Z,79.18
2018-03-31T05:49:43.996Z,79.01
2018-03-31T05:50:47.298Z,79.37
2018-03-31T05:51:50.977Z,79.16
2018-03-31T05:52:53.880Z,79.13
2018-03-31T05:53:56.812Z,78.72
2018-03-31T05:55:00.293Z,78.49
2018-03-31T05:56:03.430Z,78.65
2018-03-31T05:57:06.598Z,78.43
2018-03-31T05:58:09.452Z,78.33
2018-03-31T05:59:12.654Z,78.42
2018-03-31T06:00:15.988Z,78.19
2018-03-31T06:01:19.144Z,78.83
2018-03-31T06:02:22.146Z,78.59
2018-03-31T06:03:25.273Z,79.80
2018-03-31T06:04:28.544Z,80.80
2018-03-31T06:05:31.911Z,79.92
2018-03-31T06:06:34.822Z,78.89
2018-03-31T06:07:37.942Z,78.61
2018-03-31T06:08:40.775Z,78.77
2018-03-31T06:09:44.102Z,78.34
2018-03-31T06:10:47.408Z,78.61
2018-03-31T06:11:50.834Z,78.50
2018-03-31T06:12:53.740Z,78.62
2018-03-31T06:13:56.736Z,78.33
2018-03-31T06:15:00.017Z,78.21
2018-03-31T06:16:03.938Z,78.57
2018-03-31T06:17:06.811Z,77.85
2018-03-31T06:18:10.513Z,78.04
2018-03-31T06:19:13.910Z,77.90
2018-03-31T06:20:17.453Z,77.94
2018-03-31T06:21:21.037Z,78.00
2018-03-31T06:22:23.996Z,78.98
2018-03-31T06:23:27.188Z,78.57
2018-03-31T06:24:30.798Z,78.67
2018-03-31T06:25:34.023Z,78.09
2018-03-31T06:26:37.532Z,77.99
2018-03-31T06:27:41.561Z,78.25
2018-03-31T06:28:44.819Z,78.27
2018-03-31T06:29:47.899Z,78.50
2018-03-31T06:30:51.397Z,78.04
2018-03-31T06:31:54.755Z,78.08
2018-03-31T06:32:57.656Z,78.39
2018-03-31T06:34:01.767Z,78.55
2018-03-31T06:35:04.931Z,78.25
2018-03-31T06:36:08.288Z,78.49
2018-03-31T06:37:11.286Z,78.78
2018-03-31T06:38:15.024Z,78.22
2018-03-31T06:39:18.236Z,78.06
2018-03-31T06:40:22.023Z,78.25
2018-03-31T06:41:25.701Z,78.34
2018-03-31T06:42:33.312Z,77.59
2018-03-31T06:43:37.625Z,77.43
2018-03-31T06:44:41.424Z,77.63
2018-03-31T06:45:44.972Z,77.50
2018-03-31T06:46:47.968Z,77.63
2018-03-31T06:47:50.971Z,78.12
2018-03-31T06:48:54.616Z,78.14
2018-03-31T06:49:57.777Z,78.57
2018-03-31T06:51:01.311Z,78.93
2018-03-31T06:52:04.835Z,77.48
2018-03-31T06:53:08.405Z,77.02
2018-03-31T06:54:11.924Z,77.45
2018-03-31T06:55:16.012Z,76.95
2018-03-31T06:56:19.823Z,76.78
2018-03-31T06:57:23.011Z,76.82
2018-03-31T06:58:26.991Z,76.67
2018-03-31T06:59:30.522Z,76.48
2018-03-31T07:00:34.757Z,76.84
2018-03-31T07:01:43.187Z,76.86
2018-03-31T07:02:46.270Z,77.03
2018-03-31T07:03:49.885Z,76.96
2018-03-31T07:04:53.396Z,76.11
2018-03-31T07:05:56.815Z,75.88
2018-03-31T07:07:00.585Z,75.36
2018-03-31T07:08:10.717Z,75.97
2018-03-31T07:09:13.940Z,77.04
2018-03-31T07:10:17.427Z,77.50
2018-03-31T07:12:31.090Z,75.72
2018-03-31T07:13:34.727Z,75.74
2018-03-31T07:14:47.394Z,76.23
2018-03-31T07:15:50.962Z,76.45
2018-03-31T07:16:54.388Z,76.53
2018-03-31T07:17:57.966Z,76.74
2018-03-31T07:19:01.481Z,76.89
2018-03-31T07:20:07.062Z,76.67
2018-03-31T07:21:10.576Z,76.50
2018-03-31T07:22:13.778Z,76.66
2018-03-31T07:23:17.240Z,76.49
2018-03-31T07:24:20.646Z,76.53
2018-03-31T07:25:24.365Z,75.80
2018-03-31T07:26:28.101Z,76.11
2018-03-31T07:27:36.537Z,77.06
2018-03-31T07:28:46.179Z,77.87
2018-03-31T07:29:49.655Z,77.56
2018-03-31T07:30:53.038Z,76.82
2018-03-31T07:31:56.432Z,75.89
2018-03-31T07:32:59.958Z,76.04
2018-03-31T07:34:03.832Z,75.91
2018-03-31T07:35:07.132Z,75.70
2018-03-31T07:36:10.262Z,76.21
2018-03-31T07:37:13.292Z,76.66
2018-03-31T07:38:16.972Z,77.03
2018-03-31T07:39:20.598Z,76.12
2018-03-31T07:40:24.301Z,75.27
2018-03-31T07:41:28.236Z,75.87
2018-03-31T07:42:31.620Z,75.78
2018-03-31T07:43:34.773Z,75.05
2018-03-31T07:44:37.847Z,74.79
2018-03-31T07:45:41.110Z,74.92
2018-03-31T07:46:45.594Z,75.02
2018-03-31T07:47:49.151Z,75.64
2018-03-31T07:48:53.931Z,75.87
2018-03-31T07:49:57.068Z,75.25
2018-03-31T07:51:00.318Z,75.54
2018-03-31T07:52:03.439Z,75.55
2018-03-31T07:53:06.684Z,76.38
2018-03-31T07:54:09.816Z,77.16
2018-03-31T07:55:13.253Z,76.01
2018-03-31T07:56:16.208Z,75.08
2018-03-31T07:57:19.353Z,75.57
2018-03-31T07:58:22.540Z,76.10
2018-03-31T07:59:25.553Z,75.28
2018-03-31T08:00:29.185Z,74.92
2018-03-31T08:01:32.641Z,75.44
2018-03-31T08:02:36.270Z,74.99
2018-03-31T08:03:39.299Z,75.42
2018-03-31T08:04:42.476Z,75.83
2018-03-31T08:05:45.441Z,75.70
2018-03-31T08:06:49.015Z,76.41
2018-03-31T08:07:52.932Z,76.12
2018-03-31T08:08:56.289Z,75.86
2018-03-31T08:09:59.900Z,76.28
2018-03-31T08:11:03.534Z,75.41
2018-03-31T08:12:06.615Z,76.98
2018-03-31T08:13:10.299Z,76.97
2018-03-31T08:14:13.283Z,75.80
2018-03-31T08:15:16.831Z,75.02
2018-03-31T08:16:19.970Z,75.42
2018-03-31T08:17:23.736Z,75.88
2018-03-31T08:18:27.393Z,76.14
2018-03-31T08:19:30.912Z,76.24
2018-03-31T08:20:34.000Z,75.19
2018-03-31T08:21:37.111Z,75.93
2018-03-31T08:22:40.471Z,75.01
2018-03-31T08:23:44.815Z,74.50
2018-03-31T08:24:48.063Z,75.11
2018-03-31T08:25:51.829Z,75.66
2018-03-31T08:26:54.993Z,76.28
2018-03-31T08:27:58.050Z,75.70
2018-03-31T08:29:01.274Z,75.83
2018-03-31T08:30:05.921Z,75.93
2018-03-31T08:31:09.599Z,75.67
2018-03-31T08:32:12.887Z,75.86
2018-03-31T08:33:15.928Z,75.01
2018-03-31T08:34:19.046Z,75.05
2018-03-31T08:35:22.119Z,75.04
2018-03-31T08:36:25.133Z,75.50
2018-03-31T08:37:28.246Z,76.23
2018-03-31T08:38:31.917Z,77.14
2018-03-31T08:39:35.767Z,75.48
2018-03-31T08:40:38.787Z,75.99
2018-03-31T08:41:41.997Z,75.79
2018-03-31T08:42:45.171Z,76.05
2018-03-31T08:43:49.230Z,75.66
2018-03-31T08:44:52.754Z,75.25
2018-03-31T08:45:55.878Z,75.46
2018-03-31T08:46:58.883Z,74.97
2018-03-31T08:48:02.176Z,75.42
2018-03-31T08:49:05.375Z,75.29
2018-03-31T08:50:08.424Z,75.54
2018-03-31T08:51:11.726Z,74.89
2018-03-31T08:52:14.784Z,76.89
2018-03-31T08:53:18.017Z,75.97
2018-03-31T08:54:21.734Z,74.61
2018-03-31T08:55:24.668Z,74.99
2018-03-31T08:56:27.793Z,74.24
2018-03-31T08:57:30.996Z,74.78
2018-03-31T08:58:34.112Z,75.08
2018-03-31T08:59:37.303Z,75.40
2018-03-31T09:00:40.782Z,74.78
2018-03-31T09:01:43.781Z,75.03
2018-03-31T09:02:46.851Z,74.10
2018-03-31T09:03:50.586Z,74.57
2018-03-31T09:04:53.789Z,75.26
2018-03-31T09:05:56.835Z,75.38
2018-03-31T09:06:59.875Z,75.13
2018-03-31T09:08:03.091Z,75.07
2018-03-31T09:09:06.034Z,74.20
2018-03-31T09:10:09.070Z,73.82
2018-03-31T09:11:12.082Z,73.69
2018-03-31T09:12:15.185Z,73.91
2018-03-31T09:13:18.394Z,73.86
2018-03-31T09:14:21.630Z,73.07
2018-03-31T09:15:25.280Z,73.15
2018-03-31T09:16:28.729Z,72.72
2018-03-31T09:17:31.794Z,72.83
2018-03-31T09:18:34.888Z,72.64
2018-03-31T09:19:38.025Z,71.18
2018-03-31T09:20:41.174Z,71.31
2018-03-31T09:21:44.217Z,70.34
2018-03-31T09:22:48.174Z,70.99
2018-03-31T09:23:51.385Z,70.85
2018-03-31T09:24:54.397Z,70.60
2018-03-31T09:25:57.495Z,72.81
2018-03-31T09:27:00.545Z,72.23
2018-03-31T09:28:03.790Z,73.03
2018-03-31T09:29:07.252Z,73.63
2018-03-31T09:30:10.289Z,73.81
2018-03-31T09:31:13.328Z,73.18
2018-03-31T09:32:16.401Z,73.38
2018-03-31T09:33:19.588Z,73.70
2018-03-31T09:34:22.959Z,73.34
2018-03-31T09:35:26.619Z,73.05
2018-03-31T09:36:29.586Z,72.40
2018-03-31T09:37:32.579Z,72.94
2018-03-31T09:38:36.008Z,73.48
2018-03-31T09:39:39.436Z,73.61
2018-03-31T09:40:42.498Z,73.63
2018-03-31T09:41:45.785Z,73.33
2018-03-31T09:42:48.888Z,71.94
2018-03-31T09:43:52.543Z,72.37
2018-03-31T09:44:55.544Z,72.87
2018-03-31T09:45:59.052Z,71.19
2018-03-31T09:47:02.047Z,71.50
2018-03-31T09:48:05.405Z,69.09
2018-03-31T09:49:08.407Z,69.38
2018-03-31T09:50:11.403Z,69.82
2018-03-31T09:51:14.457Z,70.10
2018-03-31T09:52:17.606Z,70.96
2018-03-31T09:53:21.018Z,70.77
2018-03-31T09:54:24.230Z,70.90
2018-03-31T09:55:27.389Z,70.64
2018-03-31T09:56:30.468Z,71.27
2018-03-31T09:57:33.543Z,70.85
2018-03-31T09:58:36.605Z,69.39
2018-03-31T09:59:40.010Z,69.82
2018-03-31T10:00:44.143Z,69.93
2018-03-31T10:01:47.887Z,69.94
2018-03-31T10:02:50.926Z,70.02
2018-03-31T10:03:53.947Z,69.67
2018-03-31T10:04:57.181Z,69.15
2018-03-31T10:06:00.497Z,69.02
2018-03-31T10:07:03.778Z,67.46
2018-03-31T10:08:06.935Z,67.67
2018-03-31T10:09:10.022Z,67.35
2018-03-31T10:10:12.906Z,67.28
2018-03-31T10:11:15.810Z,67.55
2018-03-31T10:12:19.254Z,70.07
2018-03-31T10:13:22.351Z,68.79
2018-03-31T10:14:25.386Z,68.28
2018-03-31T10:15:28.841Z,68.02
2018-03-31T10:16:31.973Z,69.42
2018-03-31T10:17:34.860Z,68.69
2018-03-31T10:18:38.098Z,68.55
2018-03-31T10:19:41.417Z,67.73
2018-03-31T10:20:44.588Z,67.21
2018-03-31T10:21:47.816Z,66.85
2018-03-31T10:22:50.846Z,67.56
2018-03-31T10:23:53.909Z,68.31
2018-03-31T10:24:57.448Z,68.58
2018-03-31T10:26:00.572Z,68.25
2018-03-31T10:27:03.913Z,68.40
2018-03-31T10:28:07.111Z,68.77
2018-03-31T10:29:10.314Z,67.96
2018-03-31T10:30:15.089Z,68.78
2018-03-31T10:31:18.164Z,67.59
2018-03-31T10:32:21.322Z,66.79
2018-03-31T10:33:24.748Z,66.22
2018-03-31T10:34:27.991Z,65.64
2018-03-31T10:35:31.110Z,65.16
2018-03-31T10:36:34.743Z,65.43
2018-03-31T10:37:38.124Z,64.92
2018-03-31T10:38:41.328Z,66.04
2018-03-31T10:39:44.558Z,66.34
2018-03-31T10:40:47.765Z,65.92
2018-03-31T10:41:50.805Z,66.36
2018-03-31T10:42:53.772Z,67.38
2018-03-31T10:43:56.741Z,68.32
2018-03-31T10:44:59.693Z,68.15
2018-03-31T10:46:03.188Z,65.13
2018-03-31T10:47:06.215Z,65.82
2018-03-31T10:48:09.407Z,66.87
2018-03-31T10:49:12.901Z,64.82
2018-03-31T10:50:16.052Z,64.67
2018-03-31T10:51:19.048Z,65.59
2018-03-31T10:52:21.980Z,66.09
2018-03-31T10:53:25.258Z,65.73
2018-03-31T10:54:28.436Z,65.78
2018-03-31T10:55:31.419Z,65.78
2018-03-31T10:56:34.446Z,65.29
2018-03-31T10:57:37.420Z,66.54
2018-03-31T10:58:40.418Z,66.76
2018-03-31T10:59:43.449Z,66.69
2018-03-31T11:00:47.146Z,66.99
2018-03-31T11:01:50.137Z,66.10
2018-03-31T11:02:54.150Z,66.62
2018-03-31T11:03:57.243Z,66.40
2018-03-31T11:05:00.288Z,67.11
2018-03-31T11:06:03.275Z,67.61
2018-03-31T11:07:06.400Z,67.48
2018-03-31T11:08:09.604Z,68.97
2018-03-31T11:09:12.671Z,66.67
2018-03-31T11:10:15.660Z,65.38
2018-03-31T11:11:18.776Z,66.06
2018-03-31T11:12:21.812Z,66.32
2018-03-31T11:13:25.176Z,67.17
2018-03-31T11:14:28.266Z,65.96
2018-03-31T11:15:31.966Z,65.95
2018-03-31T11:16:35.018Z,64.52
2018-03-31T11:17:38.033Z,64.97
2018-03-31T11:18:41.032Z,64.83
2018-03-31T11:19:44.279Z,64.57
2018-03-31T11:20:48.353Z,64.34
2018-03-31T11:21:51.313Z,63.85
2018-03-31T11:22:55.297Z,64.83
2018-03-31T11:23:59.297Z,64.93
2018-03-31T11:25:02.426Z,64.82
2018-03-31T11:26:05.700Z,65.38
2018-03-31T11:27:08.670Z,65.93
2018-03-31T11:28:12.357Z,67.32
2018-03-31T11:29:15.531Z,68.54
2018-03-31T11:30:18.856Z,66.57
2018-03-31T11:31:22.000Z,66.29
2018-03-31T11:32:25.199Z,64.92
2018-03-31T11:33:28.367Z,65.70
2018-03-31T11:34:31.338Z,67.14
2018-03-31T11:35:34.453Z,67.72
2018-03-31T11:36:37.534Z,67.83
2018-03-31T11:37:40.724Z,68.86
2018-03-31T11:38:44.095Z,68.96
2018-03-31T11:39:47.158Z,68.97
2018-03-31T11:40:51.032Z,69.55
2018-03-31T11:41:54.315Z,69.47
2018-03-31T11:42:57.583Z,69.82
2018-03-31T11:44:00.505Z,70.59
2018-03-31T11:45:05.673Z,71.18
2018-03-31T11:46:09.205Z,71.49
2018-03-31T11:47:12.337Z,71.98
2018-03-31T11:48:15.326Z,72.20
2018-03-31T11:49:18.233Z,72.50
2018-03-31T11:50:21.168Z,72.67
2018-03-31T11:51:24.212Z,73.31
2018-03-31T11:52:27.224Z,73.79
2018-03-31T11:53:30.236Z,72.40
2018-03-31T11:54:33.293Z,71.75
2018-03-31T11:55:36.445Z,72.33
2018-03-31T11:56:39.461Z,72.50
2018-03-31T11:57:42.687Z,72.46
2018-03-31T11:58:45.970Z,72.54
2018-03-31T11:59:49.235Z,72.39
2018-03-31T12:00:53.356Z,72.38
2018-03-31T12:01:56.349Z,72.47
2018-03-31T12:03:00.052Z,71.88
2018-03-31T12:04:03.478Z,72.33
2018-03-31T12:05:06.547Z,71.34
2018-03-31T12:06:09.467Z,71.39
2018-03-31T12:07:12.629Z,71.39
2018-03-31T12:08:15.797Z,71.70
2018-03-31T12:09:18.952Z,71.76
2018-03-31T12:10:22.268Z,72.44
2018-03-31T12:11:25.205Z,72.63
2018-03-31T12:12:28.243Z,73.46
2018-03-31T12:13:31.376Z,72.39
2018-03-31T12:14:34.539Z,73.17
2018-03-31T12:15:37.821Z,72.66
2018-03-31T12:16:41.283Z,71.55
2018-03-31T12:17:44.294Z,71.86
2018-03-31T12:18:47.578Z,70.88
2018-03-31T12:19:50.611Z,71.01
2018-03-31T12:20:53.697Z,70.47
2018-03-31T12:21:56.721Z,70.56
2018-03-31T12:23:00.129Z,71.13
2018-03-31T12:24:03.338Z,71.90
2018-03-31T12:25:06.286Z,71.34
2018-03-31T12:26:09.364Z,70.94
2018-03-31T12:27:12.376Z,71.46
2018-03-31T12:28:15.533Z,71.50
2018-03-31T12:29:18.889Z,71.76
2018-03-31T12:30:22.362Z,71.78
2018-03-31T12:31:25.285Z,72.05
2018-03-31T12:32:28.322Z,72.04
2018-03-31T12:33:31.392Z,70.93
2018-03-31T12:34:34.442Z,70.48
2018-03-31T12:35:37.571Z,69.63
2018-03-31T12:36:40.725Z,70.78
2018-03-31T12:37:43.944Z,72.03
2018-03-31T12:38:46.924Z,70.21
2018-03-31T12:39:49.902Z,72.28
2018-03-31T12:40:52.800Z,71.50
2018-03-31T12:41:56.126Z,70.78
2018-03-31T12:42:59.143Z,70.72
2018-03-31T12:44:02.211Z,70.19
2018-03-31T12:45:05.350Z,70.08
2018-03-31T12:46:08.983Z,67.81
2018-03-31T12:47:12.263Z,67.83
2018-03-31T12:48:15.558Z,68.22
2018-03-31T12:49:18.646Z,68.69
2018-03-31T12:50:21.818Z,68.36
2018-03-31T12:51:24.866Z,68.39
2018-03-31T12:52:27.860Z,67.92
2018-03-31T12:53:30.776Z,67.33
2018-03-31T12:54:34.045Z,66.22
2018-03-31T12:55:36.955Z,66.35
2018-03-31T12:56:40.060Z,65.57
2018-03-31T12:57:43.088Z,65.54
2018-03-31T12:58:46.478Z,64.41
2018-03-31T12:59:49.583Z,63.67
2018-03-31T13:00:53.218Z,62.52
2018-03-31T13:01:56.328Z,62.07
2018-03-31T13:02:59.412Z,62.95
2018-03-31T13:04:02.491Z,62.22
2018-03-31T13:05:06.320Z,62.83
2018-03-31T13:06:10.196Z,63.49
2018-03-31T13:07:13.546Z,62.85
2018-03-31T13:08:16.691Z,61.39
2018-03-31T13:09:19.727Z,61.37
2018-03-31T13:10:22.896Z,63.12
2018-03-31T13:11:25.843Z,63.72
2018-03-31T13:12:28.780Z,66.74
2018-03-31T13:13:32.296Z,64.44
2018-03-31T13:14:35.484Z,62.86
2018-03-31T13:15:38.626Z,63.32
2018-03-31T13:16:41.943Z,63.56
2018-03-31T13:17:45.067Z,63.33
2018-03-31T13:18:48.121Z,63.33
2018-03-31T13:19:51.327Z,62.57
2018-03-31T13:20:54.454Z,63.90
2018-03-31T13:21:57.522Z,62.68
2018-03-31T13:23:00.541Z,63.14
2018-03-31T13:24:03.630Z,62.86
2018-03-31T13:25:06.849Z,63.38
2018-03-31T13:26:10.993Z,63.17
2018-03-31T13:27:15.092Z,63.00
2018-03-31T13:28:18.142Z,63.84
2018-03-31T13:29:21.170Z,63.95
2018-03-31T13:30:24.199Z,63.94
2018-03-31T13:31:27.142Z,63.84
2018-03-31T13:32:30.178Z,64.48
2018-03-31T13:33:33.409Z,64.12
2018-03-31T13:34:36.364Z,64.32
2018-03-31T13:35:39.376Z,65.03
2018-03-31T13:36:42.459Z,66.52
2018-03-31T13:37:45.987Z,68.87
2018-03-31T13:38:48.976Z,68.54
2018-03-31T13:39:52.055Z,69.76
2018-03-31T13:40:54.995Z,66.45